Hauptseite
METAR-TAF:

METAR-TAF

Flughäfen :

Flughafen Noumérat - Moufdi Zakaria

Ghardaia, Algerien

Breite: 32-23N, Länge: 003-49E, Höhe: 450 m

Beobachtung

Neuester Wetterbericht von vor 1 Stunde und 6 Minuten, um 06:00 UTC
Windstille
Temperatur 8°C
Luftfeuchtigkeit 66%
Luftdruck 1027 hPa
Sichtweite 10 km oder mehr
keine Wolken unter 1500 m und keine Kumulonimbus oder Gewitterwolken

METAR: DAUG 100600Z 00000KT CAVOK 08/02 Q1027

Zeit: 08:06 (07:06 UTC)

Prognose

Neuester Wetterbericht von vor 2 Stunden und 6 Minuten, um 05:00 UTC
Gültige Prognose vom 10 um 06 UTC bis 11 um 06 UTC
Wind 2 kt aus unterschiedlichen Richtungen
Sichtweite 10 km oder mehr
keine Wolken unter 1500 m und keine Kumulonimbus oder Gewitterwolken
Übergehend zu
vom 10 um 08 UTC bis 10 um 11 UTC
Wind 10 kt aus Nordost

TAF: DAUG 100500Z 1006/1106 VRB02KT CAVOK BECMG 1008/1011 05010KT

Wetterbeobachtungen und Prognosen von mehr als 4000 Flughäfen (METAR und TAF Bericht).

Die verfügbaren Stationen werden durch gelbe und rote Markierungen auf der Karte dargestellt.

Führen Sie die Maus auf sie, um den Namen der Station zu sehen.

Darauf klicken, um die Beobachtung von Wetterbeobachtungen und Prognosen zu sehen.

Um die Karte zu ändern : klicken Sie auf den grünen Tasten mit einem schwarzen Kreuz Zum Vergrößern, auf den grünen Button mit einem Gedankenstrich zu verkleinern, oder auf die grünen Pfeile für benachbarte Karten.


METAR-TAF: